Airfield :
LOGIN :

Register | Disclaimer

   EN    FR    IT 

 










Legend :    VFR   Marginal VFR   IFR   Intensive IFR   Very Intensive IFR
Visi :
Ceiling :
>= 8 km
>= 3000ft
5 to 8 km
1000 to 3000 ft
1500m to 5 km
500 to 1000 ft
800 to 1500m
200 to 500 ft
< 800m
< 200 ft
Symbols :   Thunderstorms  Fog  Heavy snow  Heavy precipitations  Wind > 20 kt
SIGMETs :     Misc.  Thunderstorms  Icing  Turbulence  Mountain Waves  Volcanic Ashes







- Airport Elevation : 203 ft
- IATA code : XMJ
- Download approach charts


LFBM - Mont-De-Marsan

CURRENT METAR :
  • 231800Z AUTO 10005KT CAVOK 12/07 Q1014 NOSIG

EXPIRED METARs :
  • 231730Z AUTO 09004KT CAVOK 11/07 Q1014 NOSIG
  • 231700Z AUTO 08003KT CAVOK 13/07 Q1014 NOSIG
  • 231630Z AUTO 00000KT CAVOK 15/06 Q1014 NOSIG
  • 231600Z AUTO 17002KT CAVOK 19/06 Q1014 NOSIG
  • 231530Z AUTO 25003KT 220V280 CAVOK 20/06 Q1014 NOSIG

TAF TAF LFBM
Valid from the 23 at 15:00 until the 24 at 15:00 UTC


231400Z 2315/2415 24010KT CAVOK
BECMG 2316/2318 10005KT
BECMG 2405/2406 24010KT
TEMPO 2406/2409 27015G25KT
No reported NOTAMs for that airfield.



MET'MAP, your aeronautical weather chart ! - Copyright ORBIFLY December 2007 - Disclaimer

ORBIFLY MET'MAP TEAM :

Programming & Development : Alexandra Zaïnal
Concept & Development : Baudouin d'Aumeries
Co-Development & Prog : Marc-Olivier Méhu
Technical & hardware support : Manuel Goepfert

Contact : metmap@orbifly.com




SOURCES & CREDITS :

   NOAA